createdAt,value
2018-07-26T00:03:39.934Z,4.83
2018-07-26T00:08:43.116Z,4.87
2018-07-26T00:13:46.338Z,5.57
2018-07-26T00:18:49.531Z,4.93
2018-07-26T00:23:52.707Z,5.07
2018-07-26T00:28:55.944Z,4.87
2018-07-26T00:33:59.142Z,4.70
2018-07-26T00:39:02.340Z,4.37
2018-07-26T00:44:05.827Z,4.47
2018-07-26T00:49:09.014Z,4.70
2018-07-26T00:54:12.183Z,5.50
2018-07-26T00:59:15.361Z,4.63
2018-07-26T01:04:18.538Z,5.20
2018-07-26T01:09:21.723Z,4.90
2018-07-26T01:14:24.939Z,5.20
2018-07-26T01:19:28.203Z,4.93
2018-07-26T01:24:31.406Z,4.90
2018-07-26T01:29:34.582Z,4.70
2018-07-26T01:34:37.770Z,5.90
2018-07-26T01:39:40.951Z,4.83
2018-07-26T01:44:44.136Z,5.00
2018-07-26T01:49:47.311Z,4.90
2018-07-26T01:54:50.506Z,5.47
2018-07-26T01:59:53.707Z,5.47
2018-07-26T02:04:56.886Z,4.43
2018-07-26T02:10:00.079Z,5.83
2018-07-26T02:15:03.275Z,4.90
2018-07-26T02:20:06.453Z,5.60
2018-07-26T02:25:09.647Z,5.40
2018-07-26T02:30:12.825Z,5.30
2018-07-26T02:35:16.008Z,4.57
2018-07-26T02:40:19.194Z,5.00
2018-07-26T02:45:22.385Z,5.23
2018-07-26T02:50:25.591Z,5.07
2018-07-26T02:55:28.875Z,5.33
2018-07-26T03:00:32.063Z,5.17
2018-07-26T03:05:35.240Z,5.70
2018-07-26T03:10:38.415Z,4.90
2018-07-26T03:15:41.637Z,4.87
2018-07-26T03:20:44.827Z,5.37
2018-07-26T03:25:48.003Z,5.03
2018-07-26T03:30:51.195Z,4.60
2018-07-26T03:35:54.382Z,5.13
2018-07-26T03:40:57.567Z,4.70
2018-07-26T03:46:00.744Z,5.23
2018-07-26T03:51:03.919Z,4.80
2018-07-26T03:56:07.094Z,5.07
2018-07-26T04:01:10.288Z,4.67
2018-07-26T04:06:13.483Z,4.43
2018-07-26T04:11:16.673Z,4.70
2018-07-26T04:16:20.119Z,4.20
2018-07-26T04:21:23.339Z,4.30
2018-07-26T04:26:26.562Z,4.63
2018-07-26T04:31:29.794Z,4.97
2018-07-26T04:36:33.007Z,5.00
2018-07-26T04:41:36.230Z,4.60
2018-07-26T04:46:39.441Z,4.30
2018-07-26T04:51:42.734Z,4.87
2018-07-26T04:56:45.958Z,4.40
2018-07-26T05:01:49.187Z,4.80
2018-07-26T05:06:52.431Z,4.50
2018-07-26T05:11:55.644Z,4.80
2018-07-26T05:16:58.664Z,4.40
2018-07-26T05:22:01.919Z,4.47
2018-07-26T05:27:05.406Z,4.47
2018-07-26T05:32:08.787Z,4.13
2018-07-26T05:37:12.015Z,3.90
2018-07-26T05:42:15.226Z,4.30
2018-07-26T05:47:18.503Z,3.83
2018-07-26T05:52:21.753Z,4.63
2018-07-26T05:57:24.955Z,5.70
2018-07-26T06:02:28.170Z,4.47
2018-07-26T06:07:31.393Z,4.60
2018-07-26T06:12:35.558Z,3.90
2018-07-26T06:17:38.824Z,4.27
2018-07-26T06:22:42.049Z,4.07
2018-07-26T06:27:45.267Z,4.37
2018-07-26T06:32:48.471Z,3.83
2018-07-26T06:37:51.695Z,4.30
2018-07-26T06:42:54.919Z,4.57
2018-07-26T06:47:58.127Z,4.17
2018-07-26T06:53:01.339Z,4.53
2018-07-26T06:58:04.574Z,4.27
2018-07-26T07:03:07.835Z,4.20
2018-07-26T07:08:11.072Z,4.00
2018-07-26T07:13:14.298Z,4.93
2018-07-26T07:18:17.544Z,4.40
2018-07-26T07:23:20.771Z,3.67
2018-07-26T07:28:23.983Z,3.87
2018-07-26T07:33:27.210Z,4.00
2018-07-26T07:38:30.435Z,4.50
2018-07-26T07:43:33.655Z,4.17
2018-07-26T07:48:36.875Z,4.73
2018-07-26T07:53:40.102Z,4.40
2018-07-26T07:58:43.311Z,4.30
2018-07-26T08:03:46.543Z,4.83
2018-07-26T08:08:50.055Z,3.90
2018-07-26T08:13:53.274Z,4.00
2018-07-26T08:18:56.819Z,4.30
2018-07-26T08:24:00.101Z,4.50
2018-07-26T08:29:03.295Z,3.97
2018-07-26T08:34:06.499Z,4.17
2018-07-26T08:39:11.459Z,4.07
2018-07-26T08:44:14.635Z,4.17
2018-07-26T08:49:17.812Z,4.90
2018-07-26T08:54:21.087Z,4.00
2018-07-26T08:59:24.203Z,3.10
2018-07-26T09:04:27.382Z,3.50
2018-07-26T09:09:30.554Z,3.73
2018-07-26T09:14:33.755Z,3.20
2018-07-26T09:19:37.002Z,3.47
2018-07-26T09:24:42.207Z,2.80
2018-07-26T09:29:45.385Z,3.03
2018-07-26T09:34:48.570Z,2.67
2018-07-26T09:39:51.754Z,3.37
2018-07-26T09:44:54.943Z,2.83
2018-07-26T09:49:58.130Z,2.90
2018-07-26T09:55:01.352Z,2.43
2018-07-26T10:00:05.862Z,1.80
2018-07-26T10:05:09.047Z,2.20
2018-07-26T10:10:12.231Z,1.90
2018-07-26T10:15:15.423Z,1.70
2018-07-26T10:20:18.680Z,2.20
2018-07-26T10:25:21.770Z,2.30
2018-07-26T10:30:24.956Z,2.37
2018-07-26T10:35:28.135Z,2.07
2018-07-26T10:40:31.314Z,2.17
2018-07-26T10:45:34.509Z,2.10
2018-07-26T10:50:37.684Z,2.00
2018-07-26T10:55:40.894Z,2.03
2018-07-26T11:00:44.079Z,2.10
2018-07-26T11:05:47.255Z,2.30
2018-07-26T11:10:50.635Z,1.67
2018-07-26T11:15:53.879Z,2.00
2018-07-26T11:20:57.099Z,1.90
2018-07-26T11:26:00.327Z,1.70
2018-07-26T11:31:03.551Z,1.80
2018-07-26T11:36:06.779Z,1.73
2018-07-26T11:41:10.003Z,1.40
2018-07-26T11:46:13.222Z,2.30
2018-07-26T11:51:16.422Z,1.70
2018-07-26T11:56:19.651Z,1.77
2018-07-26T12:01:22.878Z,1.47
2018-07-26T12:06:26.106Z,1.83
2018-07-26T12:11:29.327Z,1.87
2018-07-26T12:16:32.573Z,2.00
2018-07-26T12:21:35.792Z,1.80
2018-07-26T12:26:39.045Z,1.90
2018-07-26T12:31:42.203Z,1.80
2018-07-26T12:36:45.435Z,1.70
2018-07-26T12:41:48.654Z,2.13
2018-07-26T12:46:51.879Z,2.00
2018-07-26T12:51:55.115Z,2.00
2018-07-26T12:56:58.342Z,2.47
2018-07-26T13:02:01.570Z,1.70
2018-07-26T13:07:04.895Z,1.80
2018-07-26T13:12:08.123Z,2.07
2018-07-26T13:17:11.538Z,2.07
2018-07-26T13:22:14.742Z,1.87
2018-07-26T13:27:17.993Z,1.50
2018-07-26T13:32:21.165Z,1.70
2018-07-26T13:37:24.387Z,1.80
2018-07-26T13:42:27.627Z,2.10
2018-07-26T13:47:30.835Z,2.10
2018-07-26T13:52:34.085Z,1.80
2018-07-26T13:57:37.282Z,2.13
2018-07-26T14:02:40.727Z,1.77
2018-07-26T14:07:43.959Z,2.00
2018-07-26T14:12:47.167Z,1.90
2018-07-26T14:17:50.411Z,2.20
2018-07-26T14:22:53.671Z,1.90
2018-07-26T14:27:56.907Z,2.00
2018-07-26T14:33:00.122Z,1.80
2018-07-26T14:38:03.342Z,2.27
2018-07-26T14:43:06.563Z,1.60
2018-07-26T14:48:09.799Z,1.50
2018-07-26T14:53:13.023Z,2.20
2018-07-26T14:58:16.248Z,1.87
2018-07-26T15:03:19.482Z,1.70
2018-07-26T15:08:22.709Z,2.20
2018-07-26T15:13:26.243Z,2.10
2018-07-26T15:18:29.467Z,1.80
2018-07-26T15:23:32.677Z,2.30
2018-07-26T15:28:35.887Z,2.13
2018-07-26T15:33:39.115Z,2.47
2018-07-26T15:38:42.339Z,2.30
2018-07-26T15:43:45.587Z,2.13
2018-07-26T15:48:48.791Z,2.00
2018-07-26T15:53:52.011Z,2.00
2018-07-26T15:58:55.218Z,2.00
2018-07-26T16:03:58.571Z,1.93
2018-07-26T16:09:01.806Z,2.03
2018-07-26T16:14:05.042Z,2.13
2018-07-26T16:19:08.654Z,1.80
2018-07-26T16:24:11.939Z,2.43
2018-07-26T16:29:15.127Z,2.43
2018-07-26T16:34:18.299Z,2.17
2018-07-26T16:39:21.487Z,2.60
2018-07-26T16:44:24.679Z,2.37
2018-07-26T16:49:27.870Z,2.53
2018-07-26T16:54:31.051Z,2.50
2018-07-26T16:59:34.222Z,2.50
2018-07-26T17:04:37.403Z,1.90
2018-07-26T17:09:40.590Z,2.23
2018-07-26T17:14:43.875Z,2.93
2018-07-26T17:19:47.107Z,2.23
2018-07-26T17:24:50.630Z,2.20
2018-07-26T17:29:53.843Z,2.20
2018-07-26T17:34:57.075Z,2.20
2018-07-26T17:40:00.315Z,2.57
2018-07-26T17:45:04.612Z,2.77
2018-07-26T17:50:08.962Z,2.67
2018-07-26T17:55:12.235Z,2.77
2018-07-26T18:00:15.472Z,3.20
2018-07-26T18:05:18.691Z,2.70
2018-07-26T18:10:21.919Z,2.27
2018-07-26T18:15:25.147Z,2.53
2018-07-26T18:20:28.339Z,3.10
2018-07-26T18:25:31.532Z,2.70
2018-07-26T18:30:34.708Z,2.50
2018-07-26T18:35:37.903Z,2.90
2018-07-26T18:40:41.083Z,2.63
2018-07-26T18:45:44.264Z,2.93
2018-07-26T18:50:47.466Z,3.10
2018-07-26T18:55:50.654Z,3.40
2018-07-26T19:00:53.846Z,3.23
2018-07-26T19:05:57.031Z,2.47
2018-07-26T19:11:00.222Z,2.67
2018-07-26T19:16:03.464Z,2.63
2018-07-26T19:21:07.032Z,2.67
2018-07-26T19:26:10.254Z,3.03
2018-07-26T19:31:13.471Z,2.60
2018-07-26T19:36:16.777Z,2.80
2018-07-26T19:41:19.951Z,2.90
2018-07-26T19:46:23.400Z,2.40
2018-07-26T19:51:26.602Z,2.67
2018-07-26T19:56:29.828Z,2.60
2018-07-26T20:01:33.061Z,2.90
2018-07-26T20:06:36.339Z,3.17
2018-07-26T20:11:39.550Z,3.23
2018-07-26T20:16:42.752Z,3.27
2018-07-26T20:21:45.931Z,2.90
2018-07-26T20:26:49.149Z,2.57
2018-07-26T20:31:52.319Z,2.40
2018-07-26T20:36:55.553Z,2.77
2018-07-26T20:41:58.681Z,2.93
2018-07-26T20:47:01.886Z,2.90
2018-07-26T20:52:05.087Z,3.03
2018-07-26T20:57:08.270Z,2.60
2018-07-26T21:02:11.504Z,2.87
2018-07-26T21:07:14.642Z,2.90
2018-07-26T21:12:17.841Z,2.90
2018-07-26T21:17:21.040Z,2.90
2018-07-26T21:22:24.231Z,2.83
2018-07-26T21:27:27.455Z,3.27
2018-07-26T21:32:30.662Z,2.73
2018-07-26T21:37:33.839Z,3.27
2018-07-26T21:42:37.365Z,2.90
2018-07-26T21:47:40.550Z,2.90
2018-07-26T21:52:43.735Z,2.80
2018-07-26T21:57:46.911Z,3.17
2018-07-26T22:02:50.107Z,2.93
2018-07-26T22:07:53.295Z,3.40
2018-07-26T22:12:56.463Z,3.03
2018-07-26T22:17:59.756Z,2.97
2018-07-26T22:23:02.952Z,3.27
2018-07-26T22:28:06.163Z,3.00
2018-07-26T22:33:09.563Z,3.60
2018-07-26T22:38:13.382Z,3.00
2018-07-26T22:43:16.575Z,2.90
2018-07-26T22:48:19.763Z,4.07
2018-07-26T22:53:22.947Z,3.17
2018-07-26T22:58:26.155Z,2.97
2018-07-26T23:03:29.342Z,3.07
2018-07-26T23:08:32.529Z,2.50
2018-07-26T23:13:35.715Z,3.03
2018-07-26T23:18:38.919Z,2.90
2018-07-26T23:23:42.094Z,2.60
2018-07-26T23:28:45.274Z,3.13
2018-07-26T23:33:48.503Z,3.27
2018-07-26T23:38:51.691Z,2.53
2018-07-26T23:43:54.879Z,3.10
2018-07-26T23:48:58.071Z,3.40
2018-07-26T23:54:01.259Z,2.77
2018-07-26T23:59:04.587Z,2.83
